Algiers Airport, Algeria

1:38 PM CET on August 01, 2014 (GMT +0100)
Houari Boumediene (DAAG) Elev 82 ft | 36.69 °N, 3.22 °E | Change Station

Current weather conditions updated 8 minutes ago

Clear
Clear
91 °F
Feels Like 91 °F
N
9
Wind Variable Wind from North

Today is forecast to be nearly the same temperature as yesterday.

Today
High -- | Low -- °F
--% Chance of Precip.
Yesterday
High -- | Low -- °F
Precip. -- in
5:52 AM 7:53 PM
Waxing Crescent, 26% visible
Pressure 29.86 in
Visibility -9999.0 miles
Clouds
Heat Index 91 °F
Dew Point 59 °F
Humidity 34%
Rainfall 0.00 in
Snow Depth Not available.
UV Not available.
Pollen Not available.
Air Quality Not available.
Flu Activity Not available.
METAR DAAG 011230Z 36008KT 300V050 CAVOK 33/15 Q1011

More Conditions Fewer Conditions

Pressure 29.86 in
Visibility -9999.0 miles
Clouds
Heat Index 91 °F
Dew Point 59 °F
Humidity 34%
Rainfall 0.00 in
Snow Depth Not available.
UV Not available.
Pollen Not available.
Air Quality Not available.
Flu Activity Not available.
METAR DAAG 011230Z 36008KT 300V050 CAVOK 33/15 Q1011

More Conditions Fewer Conditions

10-Day Weather Forecast

Almanac

Astronomy

Aug. 01, 2014 Rise Set
Actual Time 5:52 AM CET 7:53 PM CET
Civil Twilight 5:24 AM CET 8:22 PM CET
Nautical Twilight 4:49 AM CET 8:56 PM CET
Astronomical Twilight 4:11 AM CET 9:34 PM CET
Moon 10:52 AM CET 10:39 PM CET
Length of Visible Light 14h 58m
Length of Day
14h 00m
Tomorrow will be 1m 44s shorter.
Waxing Crescent, 26% of the Moon is Illuminated
Today
Waxing Crescent
Aug 3
First Quarter
Aug 10
Full
Aug 17
Last Quarter
Aug 25
New

Yesterday's Extremes

Country Highs Country Lows

Community

WunderPhotos

Upload Photos

1,739,547 photos uploaded!

Nearby

Snow Depth

Not available.

Earthquake Activity

City Distance Mag. Time & Date
No recent earthquake activity has been reported nearby.
Minimum magnitude displayed is 2.5.

Coastal Water Temperatures

Place Temperature
No Stations Reporting

Nearby Weather Stations

There are no personal weather stations in this area.